Time;durP1;ratioP1;P1;durP2;ratioP2;P2;SDS_P1;SDS_P2;PMS_P1;PMS_P2;Temp;Humidity;BMP_temperature;BMP_pressure;BME280_temperature;BME280_humidity;BME280_pressure;Samples;Min_cycle;Max_cycle;Signal;HPM_P1;HPM_P2
2023/07/17 00:00:15;;;;;;;;;;;;;;;;;;4956828;28;20420;-69
2023/07/17 00:02:41;;;;;;;;;;;;;;;;;;4956175;28;19977;-70
2023/07/17 00:05:07;;;;;;;;;;;;;;;;;;4956232;28;20052;-70
2023/07/17 00:07:33;;;;;;;;;;;;;;;;;;4956436;28;19965;-71
2023/07/17 00:09:59;;;;;;;;;;;;;;;;;;4956106;28;20100;-69
2023/07/17 00:12:25;;;;;;;;;;;;;;;;;;4956389;28;19961;-70
2023/07/17 00:14:51;;;;;;;;;;;;;;;;;;4956077;28;20447;-70
2023/07/17 00:17:16;;;;;;;;;;;;;;;;;;4956835;28;19962;-69
2023/07/17 00:19:42;;;;;;;;;;;;;;;;;;4956255;28;20056;-70
2023/07/17 00:22:08;;;;;;;;;;;;;;;;;;4955912;28;20076;-70
2023/07/17 00:24:34;;;;;;;;;;;;;;;;;;4955760;28;20053;-69
2023/07/17 00:27:01;;;;;;;;;;;;;;;;;;4956093;28;20013;-70
2023/07/17 00:29:30;;;;;;;;;;;;;;;;;;4955793;28;19957;-70
2023/07/17 00:31:56;;;;;;;;;;;;;;;;;;4956344;28;19969;-70
2023/07/17 00:34:22;;;;;;;;;;;;;;;;;;4955758;28;19958;-71
2023/07/17 00:36:49;;;;;;;;;;;;;;;;;;4956034;28;19958;-70
2023/07/17 00:39:15;;;;;;;;;;;;;;;;;;4956069;28;20020;-69
2023/07/17 00:41:41;;;;;;;;;;;;;;;;;;4955534;28;19981;-71
2023/07/17 00:44:07;;;;;;;;;;;;;;;;;;4955740;28;19981;-70
2023/07/17 00:46:33;;;;;;;;;;;;;;;;;;4955914;28;19961;-71
2023/07/17 00:48:59;;;;;;;;;;;;;;;;;;4955618;28;19958;-71
2023/07/17 00:51:24;;;;;;;;;;;;;;;;;;4956124;28;19964;-69
2023/07/17 00:53:50;;;;;;;;;;;;;;;;;;4955584;28;20048;-70
2023/07/17 00:56:16;;;;;;;;;;;;;;;;;;4955580;28;20324;-71
2023/07/17 00:58:42;;;;;;;;;;;;;;;;;;4955537;28;19958;-71
2023/07/17 01:01:08;;;;;;;;;;;;;;;;;;4955830;28;19958;-70
2023/07/17 01:03:34;;;;;;;;;;;;;;;;;;4955356;28;19977;-70
2023/07/17 01:06:00;;;;;;;;;;;;;;;;;;4955472;28;20009;-70
2023/07/17 01:08:26;;;;;;;;;;;;;;;;;;4955404;28;20441;-70
2023/07/17 01:10:52;;;;;;;;;;;;;;;;;;4955941;28;19964;-70
2023/07/17 01:13:17;;;;;;;;;;;;;;;;;;4955412;28;19961;-71
2023/07/17 01:15:43;;;;;;;;;;;;;;;;;;4955401;28;19957;-71
2023/07/17 01:18:09;;;;;;;;;;;;;;;;;;4956125;28;19965;-70
2023/07/17 01:20:35;;;;;;;;;;;;;;;;;;4955544;28;20086;-70
2023/07/17 01:23:02;;;;;;;;;;;;;;;;;;4955198;28;20032;-70
2023/07/17 01:25:28;;;;;;;;;;;;;;;;;;4955817;28;19965;-70
2023/07/17 01:27:56;;;;;;;;;;;;;;;;;;4955514;28;19962;-70
2023/07/17 01:30:21;;;;;;;;;;;;;;;;;;4955843;28;20405;-71
2023/07/17 01:32:47;;;;;;;;;;;;;;;;;;4955159;28;19958;-68
2023/07/17 01:35:14;;;;;;;;;;;;;;;;;;4956231;28;19958;-69
2023/07/17 01:37:40;;;;;;;;;;;;;;;;;;4958875;28;20009;-71
2023/07/17 01:40:07;;;;;;;;;;;;;;;;;;4958895;28;19961;-70
2023/07/17 01:42:33;;;;;;;;;;;;;;;;;;4957305;28;19989;-70
2023/07/17 01:44:59;;;;;;;;;;;;;;;;;;4958588;28;20004;-70
2023/07/17 01:47:25;;;;;;;;;;;;;;;;;;4958750;28;20001;-70
2023/07/17 01:49:51;;;;;;;;;;;;;;;;;;4958650;28;19962;-70
2023/07/17 01:52:17;;;;;;;;;;;;;;;;;;4958648;28;19962;-70
2023/07/17 01:54:43;;;;;;;;;;;;;;;;;;4958901;28;19980;-71
2023/07/17 01:57:09;;;;;;;;;;;;;;;;;;4958556;28;19958;-70
2023/07/17 01:59:35;;;;;;;;;;;;;;;;;;4958484;28;19964;-71
2023/07/17 02:02:01;;;;;;;;;;;;;;;;;;4957105;28;20471;-70
2023/07/17 02:04:27;;;;;;;;;;;;;;;;;;4958492;28;20014;-70
2023/07/17 02:06:53;;;;;;;;;;;;;;;;;;4958648;28;19958;-69
2023/07/17 02:09:19;;;;;;;;;;;;;;;;;;4958606;28;19957;-70
2023/07/17 02:11:45;;;;;;;;;;;;;;;;;;4958555;28;19958;-70
2023/07/17 02:14:10;;;;;;;;;;;;;;;;;;4958244;28;19965;-69
2023/07/17 02:16:36;;;;;;;;;;;;;;;;;;4958696;28;19961;-70
2023/07/17 02:19:02;;;;;;;;;;;;;;;;;;4958182;28;19957;-71
2023/07/17 02:21:28;;;;;;;;;;;;;;;;;;4958595;28;20443;-70
2023/07/17 02:23:54;;;;;;;;;;;;;;;;;;4958036;28;19961;-69
2023/07/17 02:26:20;;;;;;;;;;;;;;;;;;4958282;28;20001;-69
2023/07/17 02:28:46;;;;;;;;;;;;;;;;;;4958267;28;19961;-70
2023/07/17 02:31:12;;;;;;;;;;;;;;;;;;4957907;28;20459;-72
2023/07/17 02:33:38;;;;;;;;;;;;;;;;;;4957873;28;20041;-70
2023/07/17 02:36:04;;;;;;;;;;;;;;;;;;4957894;28;20028;-70
2023/07/17 02:38:29;;;;;;;;;;;;;;;;;;4957836;28;19964;-71
2023/07/17 02:40:55;;;;;;;;;;;;;;;;;;4958039;28;19980;-71
2023/07/17 02:43:21;;;;;;;;;;;;;;;;;;4957580;28;19981;-70
2023/07/17 02:45:47;;;;;;;;;;;;;;;;;;4957441;28;20475;-70
2023/07/17 02:48:13;;;;;;;;;;;;;;;;;;4957919;28;19965;-70
2023/07/17 02:50:39;;;;;;;;;;;;;;;;;;4957898;28;20524;-70
2023/07/17 02:53:05;;;;;;;;;;;;;;;;;;4958082;28;19958;-70
2023/07/17 02:55:31;;;;;;;;;;;;;;;;;;4957502;28;20314;-70
2023/07/17 02:57:57;;;;;;;;;;;;;;;;;;4957476;28;19969;-70
2023/07/17 03:00:22;;;;;;;;;;;;;;;;;;4957695;28;19957;-70
2023/07/17 03:02:48;;;;;;;;;;;;;;;;;;4957292;28;19984;-71
2023/07/17 03:05:14;;;;;;;;;;;;;;;;;;4957883;28;19958;-70
2023/07/17 03:07:40;;;;;;;;;;;;;;;;;;4957289;28;20438;-70
2023/07/17 03:10:06;;;;;;;;;;;;;;;;;;4957481;28;20020;-70
2023/07/17 03:12:32;;;;;;;;;;;;;;;;;;4957205;28;19957;-70
2023/07/17 03:14:58;;;;;;;;;;;;;;;;;;4957160;28;20004;-70
2023/07/17 03:17:24;;;;;;;;;;;;;;;;;;4957891;28;19958;-70
2023/07/17 03:19:53;;;;;;;;;;;;;;;;;;4957044;28;19958;-70
2023/07/17 03:22:19;;;;;;;;;;;;;;;;;;4957476;28;19984;-69
2023/07/17 03:24:45;;;;;;;;;;;;;;;;;;4956939;28;19958;-71
2023/07/17 03:27:11;;;;;;;;;;;;;;;;;;4956945;28;19957;-69
2023/07/17 03:29:37;;;;;;;;;;;;;;;;;;4956856;28;20056;-69
2023/07/17 03:32:03;;;;;;;;;;;;;;;;;;4957074;28;19964;-70
2023/07/17 03:34:29;;;;;;;;;;;;;;;;;;4956756;28;20052;-70
2023/07/17 03:36:55;;;;;;;;;;;;;;;;;;4957310;28;20392;-70
2023/07/17 03:39:21;;;;;;;;;;;;;;;;;;4956963;28;19957;-71
2023/07/17 03:41:47;;;;;;;;;;;;;;;;;;4956566;28;20336;-69
2023/07/17 03:44:13;;;;;;;;;;;;;;;;;;4956758;28;20330;-70
2023/07/17 03:46:38;;;;;;;;;;;;;;;;;;4957173;28;19962;-69
2023/07/17 03:49:05;;;;;;;;;;;;;;;;;;4956521;28;20404;-71
2023/07/17 03:51:31;;;;;;;;;;;;;;;;;;4956459;28;20317;-70
2023/07/17 03:53:56;;;;;;;;;;;;;;;;;;4956937;28;20103;-70
2023/07/17 03:56:22;;;;;;;;;;;;;;;;;;4956647;28;20011;-71
2023/07/17 03:58:48;;;;;;;;;;;;;;;;;;4955871;28;20336;-70
2023/07/17 04:01:14;;;;;;;;;;;;;;;;;;4956298;28;20417;-70
2023/07/17 04:03:41;;;;;;;;;;;;;;;;;;4956218;28;20084;-71
2023/07/17 04:06:08;;;;;;;;;;;;;;;;;;4956514;28;19968;-69
2023/07/17 04:08:34;;;;;;;;;;;;;;;;;;4956226;28;19958;-70
2023/07/17 04:10:59;;;;;;;;;;;;;;;;;;4956148;28;20301;-70
2023/07/17 04:13:25;;;;;;;;;;;;;;;;;;4956379;28;19965;-71
2023/07/17 04:15:52;;;;;;;;;;;;;;;;;;4956024;28;19965;-70
2023/07/17 04:18:18;;;;;;;;;;;;;;;;;;4956517;28;20451;-71
2023/07/17 04:20:44;;;;;;;;;;;;;;;;;;4956525;28;19958;-70
2023/07/17 04:23:12;;;;;;;;;;;;;;;;;;4955874;28;19984;-70
2023/07/17 04:25:38;;;;;;;;;;;;;;;;;;4955939;28;19958;-70
2023/07/17 04:28:06;;;;;;;;;;;;;;;;;;4956165;28;20426;-70
2023/07/17 04:30:32;;;;;;;;;;;;;;;;;;4956168;28;19957;-70
2023/07/17 04:32:58;;;;;;;;;;;;;;;;;;4956385;28;19957;-71
2023/07/17 04:35:24;;;;;;;;;;;;;;;;;;4956036;28;19958;-71
2023/07/17 04:37:50;;;;;;;;;;;;;;;;;;4956315;28;19964;-69
2023/07/17 04:40:16;;;;;;;;;;;;;;;;;;4956006;28;20048;-70
2023/07/17 04:42:42;;;;;;;;;;;;;;;;;;4955587;28;20503;-70
2023/07/17 04:45:08;;;;;;;;;;;;;;;;;;4955548;28;19993;-70
2023/07/17 04:47:34;;;;;;;;;;;;;;;;;;4956185;28;20021;-70
2023/07/17 04:50:00;;;;;;;;;;;;;;;;;;4955657;28;19958;-70
2023/07/17 04:52:26;;;;;;;;;;;;;;;;;;4955616;28;20452;-71
2023/07/17 04:54:52;;;;;;;;;;;;;;;;;;4955834;28;20313;-69
2023/07/17 04:57:18;;;;;;;;;;;;;;;;;;4955542;28;19958;-70
2023/07/17 04:59:44;;;;;;;;;;;;;;;;;;4955530;28;20332;-69
2023/07/17 05:02:10;;;;;;;;;;;;;;;;;;4955425;28;20439;-70
2023/07/17 05:04:36;;;;;;;;;;;;;;;;;;4955761;28;20118;-70
2023/07/17 05:07:03;;;;;;;;;;;;;;;;;;4955465;28;19958;-71
2023/07/17 05:09:29;;;;;;;;;;;;;;;;;;4953964;28;19960;-71
2023/07/17 05:11:55;;;;;;;;;;;;;;;;;;4959275;28;19961;-70
2023/07/17 05:14:21;;;;;;;;;;;;;;;;;;4959602;28;19957;-69
2023/07/17 05:16:47;;;;;;;;;;;;;;;;;;4960028;28;20017;-69
2023/07/17 05:19:13;;;;;;;;;;;;;;;;;;4959276;28;20073;-71
2023/07/17 05:21:39;;;;;;;;;;;;;;;;;;4959110;28;20420;-70
2023/07/17 05:24:04;;;;;;;;;;;;;;;;;;4959664;28;19964;-69
2023/07/17 05:26:31;;;;;;;;;;;;;;;;;;4957814;28;19962;-71
2023/07/17 05:28:56;;;;;;;;;;;;;;;;;;4959650;28;19983;-70
2023/07/17 05:31:22;;;;;;;;;;;;;;;;;;4959031;28;20483;-70
2023/07/17 05:33:48;;;;;;;;;;;;;;;;;;4959248;28;19958;-70
2023/07/17 05:36:14;;;;;;;;;;;;;;;;;;4958914;28;19997;-70
2023/07/17 05:38:40;;;;;;;;;;;;;;;;;;4959217;28;19993;-69
2023/07/17 05:41:06;;;;;;;;;;;;;;;;;;4958875;28;20001;-70
2023/07/17 05:43:32;;;;;;;;;;;;;;;;;;4959004;28;20001;-69
2023/07/17 05:45:58;;;;;;;;;;;;;;;;;;4957554;28;20451;-70
2023/07/17 05:48:24;;;;;;;;;;;;;;;;;;4958056;28;20388;-69
2023/07/17 05:50:50;;;;;;;;;;;;;;;;;;4957712;28;19958;-69
2023/07/17 05:53:16;;;;;;;;;;;;;;;;;;4957910;28;19980;-70
2023/07/17 05:55:41;;;;;;;;;;;;;;;;;;4957684;28;20011;-70
2023/07/17 05:58:07;;;;;;;;;;;;;;;;;;4957362;28;20339;-71
2023/07/17 06:00:33;;;;;;;;;;;;;;;;;;4957374;28;19957;-69
2023/07/17 06:02:59;;;;;;;;;;;;;;;;;;4955972;28;20403;-70
2023/07/17 06:05:25;;;;;;;;;;;;;;;;;;4957785;28;19958;-71
2023/07/17 06:07:51;;;;;;;;;;;;;;;;;;4957213;28;19957;-71
2023/07/17 06:10:17;;;;;;;;;;;;;;;;;;4957433;28;19978;-70
2023/07/17 06:12:43;;;;;;;;;;;;;;;;;;4957422;28;19958;-70
2023/07/17 06:15:16;;;;;;;;;;;;;;;;;;4957104;28;20004;-70
2023/07/17 06:17:42;;;;;;;;;;;;;;;;;;4957833;28;20052;-70
2023/07/17 06:20:11;;;;;;;;;;;;;;;;;;4957072;28;20000;-70
2023/07/17 06:22:37;;;;;;;;;;;;;;;;;;4957065;28;19981;-69
2023/07/17 06:25:03;;;;;;;;;;;;;;;;;;4957210;28;20384;-71
2023/07/17 06:27:29;;;;;;;;;;;;;;;;;;4956901;28;19980;-70
2023/07/17 06:29:55;;;;;;;;;;;;;;;;;;4957412;28;20392;-70
2023/07/17 06:32:21;;;;;;;;;;;;;;;;;;4956853;28;20048;-71
2023/07/17 06:34:47;;;;;;;;;;;;;;;;;;4957377;28;20364;-72
2023/07/17 06:37:13;;;;;;;;;;;;;;;;;;4956759;28;19958;-72
2023/07/17 06:39:39;;;;;;;;;;;;;;;;;;4956812;28;19965;-71
2023/07/17 06:42:04;;;;;;;;;;;;;;;;;;4956823;28;20091;-71
2023/07/17 06:44:30;;;;;;;;;;;;;;;;;;4889722;28;1939523;-71
2023/07/17 06:46:56;;;;;;;;;;;;;;;;;;4957703;28;20495;-72
2023/07/17 06:49:22;;;;;;;;;;;;;;;;;;4957647;28;20399;-72
2023/07/17 06:51:48;;;;;;;;;;;;;;;;;;4958142;28;20328;-72
2023/07/17 06:54:14;;;;;;;;;;;;;;;;;;4957831;28;19962;-71
2023/07/17 06:56:40;;;;;;;;;;;;;;;;;;4957466;28;20400;-72
2023/07/17 06:59:06;;;;;;;;;;;;;;;;;;4957456;28;19957;-71
2023/07/17 07:01:32;;;;;;;;;;;;;;;;;;4957366;28;20051;-70
2023/07/17 07:03:57;;;;;;;;;;;;;;;;;;4957924;28;20434;-72
2023/07/17 07:06:23;;;;;;;;;;;;;;;;;;4957308;28;19958;-71
2023/07/17 07:08:49;;;;;;;;;;;;;;;;;;4967971;28;20008;-69
2023/07/17 07:11:15;;;;;;;;;;;;;;;;;;4975587;28;19965;-72
2023/07/17 07:13:42;;;;;;;;;;;;;;;;;;4976512;28;19958;-72
2023/07/17 07:16:08;;;;;;;;;;;;;;;;;;4976149;28;20470;-72
2023/07/17 07:18:33;;;;;;;;;;;;;;;;;;4976952;28;19958;-70
2023/07/17 07:20:59;;;;;;;;;;;;;;;;;;4975955;28;20012;-71
2023/07/17 07:23:25;;;;;;;;;;;;;;;;;;4975848;28;20485;-71
2023/07/17 07:25:51;;;;;;;;;;;;;;;;;;4976813;28;20016;-71
2023/07/17 07:28:17;;;;;;;;;;;;;;;;;;4975864;28;19969;-73
2023/07/17 07:30:43;;;;;;;;;;;;;;;;;;4976153;28;19961;-73
2023/07/17 07:33:09;;;;;;;;;;;;;;;;;;4975649;28;20008;-75
2023/07/17 07:35:35;;;;;;;;;;;;;;;;;;4975764;28;19965;-73
2023/07/17 07:38:01;;;;;;;;;;;;;;;;;;4976030;28;19957;-71
2023/07/17 07:40:27;;;;;;;;;;;;;;;;;;4975970;28;19969;-69
2023/07/17 07:42:52;;;;;;;;;;;;;;;;;;4975601;28;20421;-74
2023/07/17 07:45:21;;;;;;;;;;;;;;;;;;4975615;28;19993;-73
2023/07/17 07:47:46;;;;;;;;;;;;;;;;;;4975784;28;20427;-69
2023/07/17 07:50:12;;;;;;;;;;;;;;;;;;4975337;28;20004;-72
2023/07/17 07:52:38;;;;;;;;;;;;;;;;;;4975953;28;19957;-74
2023/07/17 07:55:04;;;;;;;;;;;;;;;;;;4975559;28;20060;-72
2023/07/17 07:57:30;;;;;;;;;;;;;;;;;;4975647;28;19964;-73
2023/07/17 07:59:56;;;;;;;;;;;;;;;;;;4975606;28;19972;-71
2023/07/17 08:02:23;;;;;;;;;;;;;;;;;;4975611;28;19977;-72
2023/07/17 08:04:49;;;;;;;;;;;;;;;;;;4973917;28;20034;-71
2023/07/17 08:07:15;;;;;;;;;;;;;;;;;;4973066;28;19973;-71
2023/07/17 08:09:41;;;;;;;;;;;;;;;;;;4973844;28;19961;-69
2023/07/17 08:12:07;;;;;;;;;;;;;;;;;;4975473;28;19965;-73
2023/07/17 08:14:33;;;;;;;;;;;;;;;;;;4974820;28;20343;-78
2023/07/17 08:16:59;;;;;;;;;;;;;;;;;;4974103;28;20060;-72
2023/07/17 08:19:25;;;;;;;;;;;;;;;;;;4975161;28;20016;-72
2023/07/17 08:21:51;;;;;;;;;;;;;;;;;;4975192;28;19957;-73
2023/07/17 08:24:17;;;;;;;;;;;;;;;;;;4973926;28;20028;-71
2023/07/17 08:26:43;;;;;;;;;;;;;;;;;;4974242;28;19961;-71
2023/07/17 08:29:09;;;;;;;;;;;;;;;;;;4974003;28;19965;-71
2023/07/17 08:31:35;;;;;;;;;;;;;;;;;;4974684;28;19991;-71
2023/07/17 08:34:01;;;;;;;;;;;;;;;;;;4975310;28;20347;-71
2023/07/17 08:36:27;;;;;;;;;;;;;;;;;;4975213;28;19976;-70
2023/07/17 08:38:53;;;;;;;;;;;;;;;;;;4975461;28;19960;-70
2023/07/17 08:41:19;;;;;;;;;;;;;;;;;;4973565;28;19996;-70
2023/07/17 08:43:45;;;;;;;;;;;;;;;;;;4974201;28;19976;-70
2023/07/17 08:46:11;;;;;;;;;;;;;;;;;;4974715;28;20000;-70
2023/07/17 08:48:36;;;;;;;;;;;;;;;;;;4974207;28;19972;-70
2023/07/17 08:51:02;;;;;;;;;;;;;;;;;;4974274;28;19965;-70
2023/07/17 08:53:28;;;;;;;;;;;;;;;;;;4973383;28;19961;-70
2023/07/17 08:55:54;;;;;;;;;;;;;;;;;;4974345;28;19996;-71
2023/07/17 08:58:20;;;;;;;;;;;;;;;;;;4974194;28;19965;-71
2023/07/17 09:00:47;;;;;;;;;;;;;;;;;;4973390;28;19962;-69
2023/07/17 09:03:13;;;;;;;;;;;;;;;;;;4974205;28;20000;-75
2023/07/17 09:05:39;;;;;;;;;;;;;;;;;;4974241;28;20347;-68
2023/07/17 09:08:05;;;;;;;;;;;;;;;;;;4973451;28;19965;-71
2023/07/17 09:10:31;;;;;;;;;;;;;;;;;;4972599;28;19997;-73
2023/07/17 09:12:57;;;;;;;;;;;;;;;;;;4974228;28;19969;-72
2023/07/17 09:15:23;;;;;;;;;;;;;;;;;;4975319;28;20048;-71
2023/07/17 09:17:49;;;;;;;;;;;;;;;;;;4974264;28;19965;-73
2023/07/17 09:20:14;;;;;;;;;;;;;;;;;;4973770;28;20001;-73
2023/07/17 09:22:40;;;;;;;;;;;;;;;;;;4974386;28;19977;-73
2023/07/17 09:25:06;;;;;;;;;;;;;;;;;;4974328;28;19980;-72
2023/07/17 09:27:32;;;;;;;;;;;;;;;;;;4973655;28;19961;-73
2023/07/17 09:29:58;;;;;;;;;;;;;;;;;;4974485;28;19973;-70
2023/07/17 09:32:24;;;;;;;;;;;;;;;;;;4974765;28;20486;-72
2023/07/17 09:34:51;;;;;;;;;;;;;;;;;;4974560;28;19968;-72
2023/07/17 09:37:17;;;;;;;;;;;;;;;;;;4974102;28;19993;-72
2023/07/17 09:39:42;;;;;;;;;;;;;;;;;;4973451;28;19961;-73
2023/07/17 09:42:08;;;;;;;;;;;;;;;;;;4973810;28;19985;-72
2023/07/17 09:44:35;;;;;;;;;;;;;;;;;;4974542;28;20055;-71
2023/07/17 09:47:00;;;;;;;;;;;;;;;;;;4973402;28;19966;-72
2023/07/17 09:49:26;;;;;;;;;;;;;;;;;;4972701;28;19985;-72
2023/07/17 09:51:52;;;;;;;;;;;;;;;;;;4972995;28;20360;-72
2023/07/17 09:54:18;;;;;;;;;;;;;;;;;;4972653;28;19957;-71
2023/07/17 09:56:44;;;;;;;;;;;;;;;;;;4973062;28;20391;-71
2023/07/17 09:59:10;;;;;;;;;;;;;;;;;;4975987;28;19961;-73
2023/07/17 10:01:36;;;;;;;;;;;;;;;;;;4975743;28;19965;-70
2023/07/17 10:04:02;;;;;;;;;;;;;;;;;;4975214;28;19981;-71
2023/07/17 10:06:27;;;;;;;;;;;;;;;;;;4975576;28;20051;-71
2023/07/17 10:08:53;;;;;;;;;;;;;;;;;;4976492;28;19972;-72
2023/07/17 10:11:19;;;;;;;;;;;;;;;;;;4977072;28;19961;-70
2023/07/17 10:13:45;;;;;;;;;;;;;;;;;;4976866;28;19961;-71
2023/07/17 10:16:11;;;;;;;;;;;;;;;;;;4976849;28;20012;-70
2023/07/17 10:18:37;;;;;;;;;;;;;;;;;;4977300;28;19969;-72
2023/07/17 10:21:04;;;;;;;;;;;;;;;;;;4976321;28;20000;-71
2023/07/17 10:23:30;;;;;;;;;;;;;;;;;;4977298;28;20024;-72
2023/07/17 10:25:56;;;;;;;;;;;;;;;;;;4977077;28;19965;-71
2023/07/17 10:28:21;;;;;;;;;;;;;;;;;;4976938;28;20454;-71
2023/07/17 10:30:47;;;;;;;;;;;;;;;;;;4975249;28;19965;-74
2023/07/17 10:33:13;;;;;;;;;;;;;;;;;;4976753;28;20379;-75
2023/07/17 10:35:39;;;;;;;;;;;;;;;;;;4977125;28;20085;-73
2023/07/17 10:38:05;;;;;;;;;;;;;;;;;;4977181;28;19996;-75
2023/07/17 10:40:31;;;;;;;;;;;;;;;;;;4977395;28;20011;-73
2023/07/17 10:42:57;;;;;;;;;;;;;;;;;;4977221;28;19985;-74
2023/07/17 10:45:23;;;;;;;;;;;;;;;;;;4976959;28;20085;-72
2023/07/17 10:47:49;;;;;;;;;;;;;;;;;;4977263;28;19957;-72
2023/07/17 10:50:15;;;;;;;;;;;;;;;;;;4977209;28;19957;-74
2023/07/17 10:52:41;;;;;;;;;;;;;;;;;;4977422;28;19957;-75
2023/07/17 10:55:07;;;;;;;;;;;;;;;;;;4976871;28;19999;-73
2023/07/17 10:57:32;;;;;;;;;;;;;;;;;;4976841;28;19957;-73
2023/07/17 10:59:58;;;;;;;;;;;;;;;;;;4976781;28;19957;-74
2023/07/17 11:02:26;;;;;;;;;;;;;;;;;;4977011;28;19993;-73
2023/07/17 11:04:51;;;;;;;;;;;;;;;;;;4976726;28;19964;-74
2023/07/17 11:07:17;;;;;;;;;;;;;;;;;;4976159;28;19961;-74
2023/07/17 11:09:43;;;;;;;;;;;;;;;;;;4976319;28;20305;-74
2023/07/17 11:12:09;;;;;;;;;;;;;;;;;;4976857;28;20012;-74
2023/07/17 11:14:35;;;;;;;;;;;;;;;;;;4976513;28;20326;-73
2023/07/17 11:17:01;;;;;;;;;;;;;;;;;;4976529;28;19957;-73
2023/07/17 11:19:27;;;;;;;;;;;;;;;;;;4977243;28;19981;-73
2023/07/17 11:21:53;;;;;;;;;;;;;;;;;;4976548;28;19961;-74
2023/07/17 11:24:18;;;;;;;;;;;;;;;;;;4976895;28;19988;-74
2023/07/17 11:26:44;;;;;;;;;;;;;;;;;;4976285;28;20442;-73
2023/07/17 11:29:10;;;;;;;;;;;;;;;;;;4975010;28;20391;-75
2023/07/17 11:31:36;;;;;;;;;;;;;;;;;;4976155;28;20048;-75
2023/07/17 11:34:02;;;;;;;;;;;;;;;;;;4976181;28;20054;-73
2023/07/17 11:36:28;;;;;;;;;;;;;;;;;;4976110;28;19964;-72
2023/07/17 11:38:54;;;;;;;;;;;;;;;;;;4976574;28;20400;-74
2023/07/17 11:41:20;;;;;;;;;;;;;;;;;;4976198;28;19993;-71
2023/07/17 11:43:46;;;;;;;;;;;;;;;;;;4975937;28;20379;-74
2023/07/17 11:46:12;;;;;;;;;;;;;;;;;;4975546;28;20043;-74
2023/07/17 11:48:38;;;;;;;;;;;;;;;;;;4975930;28;19961;-74
2023/07/17 11:51:04;;;;;;;;;;;;;;;;;;4976100;28;19957;-73
2023/07/17 11:53:30;;;;;;;;;;;;;;;;;;4976053;28;19958;-74
2023/07/17 11:55:55;;;;;;;;;;;;;;;;;;4975784;28;20000;-74
2023/07/17 11:58:21;;;;;;;;;;;;;;;;;;4976259;28;20424;-74
2023/07/17 12:00:47;;;;;;;;;;;;;;;;;;4975128;28;20483;-75
2023/07/17 12:03:13;;;;;;;;;;;;;;;;;;4973781;28;19984;-72
2023/07/17 12:05:39;;;;;;;;;;;;;;;;;;4974389;28;20382;-71
2023/07/17 12:08:05;;;;;;;;;;;;;;;;;;4974995;28;20048;-71
2023/07/17 12:10:31;;;;;;;;;;;;;;;;;;4975102;28;19965;-73
2023/07/17 12:12:57;;;;;;;;;;;;;;;;;;4974503;28;19973;-73
2023/07/17 12:15:23;;;;;;;;;;;;;;;;;;4975378;28;19957;-68
2023/07/17 12:17:48;;;;;;;;;;;;;;;;;;4974958;28;19961;-71
2023/07/17 12:20:20;;;;;;;;;;;;;;;;;;4974480;28;19962;-71
2023/07/17 12:22:46;;;;;;;;;;;;;;;;;;4974968;28;20032;-72
2023/07/17 12:25:12;;;;;;;;;;;;;;;;;;4974860;28;19965;-74
2023/07/17 12:27:38;;;;;;;;;;;;;;;;;;4975184;28;19957;-72
2023/07/17 12:30:04;;;;;;;;;;;;;;;;;;4974678;28;19965;-72
2023/07/17 12:32:29;;;;;;;;;;;;;;;;;;4974719;28;20008;-77
2023/07/17 12:34:55;;;;;;;;;;;;;;;;;;4974093;28;19976;-72
2023/07/17 12:37:21;;;;;;;;;;;;;;;;;;4975065;28;19957;-71
2023/07/17 12:39:47;;;;;;;;;;;;;;;;;;4974514;28;20446;-71
2023/07/17 12:42:14;;;;;;;;;;;;;;;;;;4974201;28;19985;-72
2023/07/17 12:44:40;;;;;;;;;;;;;;;;;;4972773;28;20367;-72
2023/07/17 12:47:06;;;;;;;;;;;;;;;;;;4974437;28;20040;-72
2023/07/17 12:49:32;;;;;;;;;;;;;;;;;;4974550;28;19971;-73
2023/07/17 12:52:00;;;;;;;;;;;;;;;;;;4974131;28;20020;-74
2023/07/17 12:54:26;;;;;;;;;;;;;;;;;;4974434;28;19969;-73
2023/07/17 12:56:52;;;;;;;;;;;;;;;;;;4973619;28;20335;-72
2023/07/17 12:59:18;;;;;;;;;;;;;;;;;;4974165;28;20023;-71
2023/07/17 13:01:46;;;;;;;;;;;;;;;;;;4973508;28;19961;-73
2023/07/17 13:04:12;;;;;;;;;;;;;;;;;;4972298;28;20063;-73
2023/07/17 13:06:38;;;;;;;;;;;;;;;;;;4974610;28;20052;-72
2023/07/17 13:09:04;;;;;;;;;;;;;;;;;;4974390;28;19965;-73
2023/07/17 13:11:30;;;;;;;;;;;;;;;;;;4974259;28;20427;-74
2023/07/17 13:13:55;;;;;;;;;;;;;;;;;;4973894;28;19965;-73
2023/07/17 13:16:21;;;;;;;;;;;;;;;;;;4974023;28;19973;-73
2023/07/17 13:18:47;;;;;;;;;;;;;;;;;;4974909;28;19976;-72
2023/07/17 13:21:13;;;;;;;;;;;;;;;;;;4974100;28;19966;-75
2023/07/17 13:23:39;;;;;;;;;;;;;;;;;;4973680;28;19992;-74
2023/07/17 13:26:05;;;;;;;;;;;;;;;;;;4973067;28;19965;-73
2023/07/17 13:28:31;;;;;;;;;;;;;;;;;;4974467;28;20040;-73
2023/07/17 13:30:57;;;;;;;;;;;;;;;;;;4974312;28;19968;-71
2023/07/17 13:33:23;;;;;;;;;;;;;;;;;;4977532;28;20048;-71
2023/07/17 13:35:48;;;;;;;;;;;;;;;;;;4978078;28;19965;-71
2023/07/17 13:38:14;;;;;;;;;;;;;;;;;;4977907;28;19965;-72
2023/07/17 13:40:40;;;;;;;;;;;;;;;;;;4978047;28;19961;-72
2023/07/17 13:43:07;;;;;;;;;;;;;;;;;;4977194;28;20080;-72
2023/07/17 13:45:33;;;;;;;;;;;;;;;;;;4976913;28;20035;-73
2023/07/17 13:47:58;;;;;;;;;;;;;;;;;;4977814;28;19968;-73
2023/07/17 13:50:24;;;;;;;;;;;;;;;;;;4977772;28;19984;-74
2023/07/17 13:52:50;;;;;;;;;;;;;;;;;;4978238;28;19958;-74
2023/07/17 13:55:16;;;;;;;;;;;;;;;;;;4977654;28;19965;-76
2023/07/17 13:57:42;;;;;;;;;;;;;;;;;;4977332;28;20028;-74
2023/07/17 14:00:08;;;;;;;;;;;;;;;;;;4977149;28;20395;-73
2023/07/17 14:02:34;;;;;;;;;;;;;;;;;;4977351;28;19983;-73
2023/07/17 14:05:00;;;;;;;;;;;;;;;;;;4976670;28;20366;-76
2023/07/17 14:07:25;;;;;;;;;;;;;;;;;;4975239;28;19965;-76
2023/07/17 14:09:52;;;;;;;;;;;;;;;;;;4974583;28;19961;-76
2023/07/17 14:12:18;;;;;;;;;;;;;;;;;;4977293;28;20076;-78
2023/07/17 14:14:43;;;;;;;;;;;;;;;;;;4977623;28;20004;-77
2023/07/17 14:17:09;;;;;;;;;;;;;;;;;;4976432;28;20338;-78
2023/07/17 14:19:35;;;;;;;;;;;;;;;;;;4976721;28;20465;-75
2023/07/17 14:22:02;;;;;;;;;;;;;;;;;;4975786;28;19993;-75
2023/07/17 14:24:28;;;;;;;;;;;;;;;;;;4975933;28;19976;-76
2023/07/17 14:26:53;;;;;;;;;;;;;;;;;;4977128;28;19957;-77
2023/07/17 14:29:19;;;;;;;;;;;;;;;;;;4976889;28;19965;-78
2023/07/17 14:31:45;;;;;;;;;;;;;;;;;;4976540;28;20055;-80
2023/07/17 14:34:11;;;;;;;;;;;;;;;;;;4976227;28;19961;-73
2023/07/17 14:36:37;;;;;;;;;;;;;;;;;;4977773;28;20380;-75
2023/07/17 14:39:03;;;;;;;;;;;;;;;;;;4975701;28;19971;-75
2023/07/17 14:41:29;;;;;;;;;;;;;;;;;;4976101;28;20474;-74
2023/07/17 14:43:55;;;;;;;;;;;;;;;;;;4976301;28;19985;-75
2023/07/17 14:46:21;;;;;;;;;;;;;;;;;;4976906;28;19993;-75
2023/07/17 14:48:47;;;;;;;;;;;;;;;;;;4976137;28;20051;-75
2023/07/17 14:51:13;;;;;;;;;;;;;;;;;;4976510;28;20012;-75
2023/07/17 14:53:39;;;;;;;;;;;;;;;;;;4976350;28;19961;-75
2023/07/17 14:56:05;;;;;;;;;;;;;;;;;;4976667;28;19961;-76
2023/07/17 14:58:31;;;;;;;;;;;;;;;;;;4976515;28;19965;-77
2023/07/17 15:00:57;;;;;;;;;;;;;;;;;;4976437;28;20331;-77
2023/07/17 15:03:25;;;;;;;;;;;;;;;;;;4976194;28;19981;-75
2023/07/17 15:05:51;;;;;;;;;;;;;;;;;;4977307;28;19957;-77
2023/07/17 15:08:17;;;;;;;;;;;;;;;;;;4976179;28;20023;-75
2023/07/17 15:10:43;;;;;;;;;;;;;;;;;;4974762;28;20375;-75
2023/07/17 15:13:09;;;;;;;;;;;;;;;;;;4976331;28;19957;-77
2023/07/17 15:15:35;;;;;;;;;;;;;;;;;;4976802;28;20044;-75
2023/07/17 15:18:01;;;;;;;;;;;;;;;;;;4975219;28;20015;-72
2023/07/17 15:20:27;;;;;;;;;;;;;;;;;;4977499;28;19957;-72
2023/07/17 15:22:52;;;;;;;;;;;;;;;;;;4976298;28;20367;-72
2023/07/17 15:25:18;;;;;;;;;;;;;;;;;;4976394;28;20029;-72
2023/07/17 15:27:44;;;;;;;;;;;;;;;;;;4976537;28;19965;-72
2023/07/17 15:30:10;;;;;;;;;;;;;;;;;;4976241;28;19980;-72
2023/07/17 15:32:36;;;;;;;;;;;;;;;;;;4976431;28;20028;-72
2023/07/17 15:35:02;;;;;;;;;;;;;;;;;;4976142;28;19957;-72
2023/07/17 15:37:28;;;;;;;;;;;;;;;;;;4976104;28;20408;-72
2023/07/17 15:39:54;;;;;;;;;;;;;;;;;;4976069;28;19958;-72
2023/07/17 15:42:20;;;;;;;;;;;;;;;;;;4975986;28;19981;-72
2023/07/17 15:44:46;;;;;;;;;;;;;;;;;;4976142;28;20493;-72
2023/07/17 15:47:11;;;;;;;;;;;;;;;;;;4975912;28;19985;-72
2023/07/17 15:49:37;;;;;;;;;;;;;;;;;;4975855;28;20423;-72
2023/07/17 15:52:03;;;;;;;;;;;;;;;;;;4975576;28;20040;-72
2023/07/17 15:54:29;;;;;;;;;;;;;;;;;;4975283;28;19961;-72
2023/07/17 15:56:55;;;;;;;;;;;;;;;;;;4976290;28;19965;-72
2023/07/17 15:59:21;;;;;;;;;;;;;;;;;;4975735;28;19958;-72
2023/07/17 16:01:47;;;;;;;;;;;;;;;;;;4975694;28;20451;-72
2023/07/17 16:04:13;;;;;;;;;;;;;;;;;;4975682;28;20439;-72
2023/07/17 16:06:38;;;;;;;;;;;;;;;;;;4975822;28;19964;-72
2023/07/17 16:09:05;;;;;;;;;;;;;;;;;;4975520;28;20332;-72
2023/07/17 16:11:31;;;;;;;;;;;;;;;;;;4975511;28;19989;-72
2023/07/17 16:13:57;;;;;;;;;;;;;;;;;;4975429;28;20028;-72
2023/07/17 16:16:23;;;;;;;;;;;;;;;;;;4975393;28;19972;-72
2023/07/17 16:18:49;;;;;;;;;;;;;;;;;;4976382;28;19957;-72
2023/07/17 16:21:14;;;;;;;;;;;;;;;;;;4975291;28;20057;-72
2023/07/17 16:23:40;;;;;;;;;;;;;;;;;;4975481;28;19977;-72
2023/07/17 16:26:07;;;;;;;;;;;;;;;;;;4975094;28;19964;-72
2023/07/17 16:28:33;;;;;;;;;;;;;;;;;;4975500;28;19957;-72
2023/07/17 16:30:59;;;;;;;;;;;;;;;;;;4974958;28;20308;-72
2023/07/17 16:33:25;;;;;;;;;;;;;;;;;;4973364;28;19957;-72
2023/07/17 16:35:51;;;;;;;;;;;;;;;;;;4973985;28;20387;-72